Time;durP1;ratioP1;P1;durP2;ratioP2;P2;SDS_P1;SDS_P2;PMS_P1;PMS_P2;Temp;Humidity;BMP_temperature;BMP_pressure;BME280_temperature;BME280_humidity;BME280_pressure;Samples;Min_cycle;Max_cycle;Signal;HPM_P1;HPM_P2
2021/01/05 00:00:48;;;;;;;640.28;44.80;;;-0.80;99.90;;;;;;5036460;28;20091;-62
2021/01/05 00:03:14;;;;;;;342.65;29.38;;;-0.90;99.90;;;;;;5030652;28;20038;-63
2021/01/05 00:05:40;;;;;;;237.95;23.48;;;-0.90;99.90;;;;;;5019668;28;20041;-63
2021/01/05 00:08:06;;;;;;;650.03;41.70;;;-0.80;99.90;;;;;;5035385;28;20045;-62
2021/01/05 00:10:31;;;;;;;417.80;35.47;;;-0.80;99.90;;;;;;5040188;28;20436;-63
2021/01/05 00:12:57;;;;;;;436.80;35.63;;;-0.80;99.90;;;;;;5040660;28;20116;-63
2021/01/05 00:15:23;;;;;;;335.38;25.80;;;-0.90;99.90;;;;;;5030992;28;20041;-61
2021/01/05 00:17:49;;;;;;;531.55;35.33;;;-0.90;99.90;;;;;;5046443;28;20501;-64
2021/01/05 00:20:18;;;;;;;135.07;20.27;;;-0.90;99.90;;;;;;5047775;28;20493;-62
2021/01/05 00:22:45;;;;;;;435.23;30.98;;;-0.90;99.90;;;;;;5046743;28;20052;-62
2021/01/05 00:25:13;;;;;;;372.40;27.20;;;-0.90;99.90;;;;;;5047968;28;20041;-64
2021/01/05 00:27:38;;;;;;;318.10;27.85;;;-0.80;99.90;;;;;;5044941;28;20052;-64
2021/01/05 00:30:30;;;;;;;167.82;18.83;;;-0.90;99.90;;;;;;5047480;28;20040;-62
2021/01/05 00:32:56;;;;;;;183.32;20.90;;;-0.80;99.90;;;;;;5018123;28;20052;-64
2021/01/05 00:35:26;;;;;;;285.98;24.90;;;-0.80;99.90;;;;;;5007167;28;20046;-64
2021/01/05 00:37:51;;;;;;;428.63;34.30;;;-0.80;99.90;;;;;;5016738;28;20044;-63
2021/01/05 00:40:18;;;;;;;270.58;23.88;;;-0.80;99.90;;;;;;5026940;28;20049;-63
2021/01/05 00:42:44;;;;;;;336.50;24.90;;;-0.80;99.90;;;;;;5024180;28;20123;-61
2021/01/05 00:45:10;;;;;;;595.30;38.05;;;-0.70;99.90;;;;;;5027361;28;20458;-62
2021/01/05 00:47:36;;;;;;;550.55;33.83;;;-0.80;99.90;;;;;;5045440;28;20033;-64
2021/01/05 00:50:04;;;;;;;296.80;25.02;;;-0.80;99.90;;;;;;5047338;28;20643;-63
2021/01/05 00:52:29;;;;;;;548.20;39.65;;;-0.70;99.90;;;;;;5046284;28;20127;-63
2021/01/05 00:54:55;;;;;;;574.22;38.75;;;-0.80;99.90;;;;;;5047136;28;20492;-64
2021/01/05 00:57:20;;;;;;;527.50;36.28;;;-0.90;99.90;;;;;;5046114;28;20435;-63
2021/01/05 00:59:46;;;;;;;621.97;40.08;;;-0.90;99.90;;;;;;5046415;28;20493;-63
2021/01/05 01:02:13;;;;;;;383.17;26.90;;;-0.90;99.90;;;;;;5043766;28;20041;-62
2021/01/05 01:04:40;;;;;;;561.88;35.03;;;-0.80;99.90;;;;;;5026881;28;20474;-63
2021/01/05 01:07:05;;;;;;;217.80;21.92;;;-0.80;99.90;;;;;;5026897;28;20080;-62
2021/01/05 01:09:31;;;;;;;344.58;26.85;;;-0.80;99.90;;;;;;5037926;28;20071;-63
2021/01/05 01:12:14;;;;;;;305.17;22.00;;;-0.70;99.90;;;;;;5042395;28;20037;-63
2021/01/05 01:14:41;;;;;;;219.75;20.70;;;-0.70;99.90;;;;;;5026567;28;20143;-63
2021/01/05 01:17:07;;;;;;;558.90;37.22;;;-0.60;99.90;;;;;;5027536;28;20041;-62
2021/01/05 01:19:33;;;;;;;240.85;23.48;;;-0.70;99.90;;;;;;5046506;28;20041;-63
2021/01/05 01:21:59;;;;;;;139.10;17.40;;;-0.70;99.90;;;;;;5045996;28;20115;-64
2021/01/05 01:24:25;;;;;;;402.17;28.33;;;-0.70;99.90;;;;;;5045938;28;20048;-64
2021/01/05 01:26:50;;;;;;;194.65;21.40;;;-0.70;99.90;;;;;;5043922;28;20045;-63
2021/01/05 01:29:21;;;;;;;438.42;29.67;;;-0.70;99.90;;;;;;5045923;28;20047;-63
2021/01/05 01:31:47;;;;;;;70.88;15.52;;;-0.70;99.90;;;;;;5045799;28;20049;-64
2021/01/05 01:34:17;;;;;;;139.93;21.08;;;-0.70;99.90;;;;;;5045398;28;20041;-63
2021/01/05 01:37:12;;;;;;;215.23;23.38;;;-0.70;99.90;;;;;;5046288;28;20059;-64
2021/01/05 01:39:40;;;;;;;187.55;18.08;;;-0.60;99.90;;;;;;5037145;28;20713;-61
2021/01/05 01:42:07;;;;;;;217.80;22.40;;;-0.60;99.90;;;;;;5043592;28;20040;-63
2021/01/05 01:44:36;;;;;;;192.20;19.35;;;-0.60;99.90;;;;;;5045371;28;20151;-63
2021/01/05 01:47:14;;;;;;;287.17;24.55;;;-0.60;99.90;;;;;;5045256;28;20036;-63
2021/01/05 01:49:40;;;;;;;154.82;18.45;;;-0.60;99.90;;;;;;5045831;28;20044;-63
2021/01/05 01:52:09;;;;;;;110.47;17.13;;;-0.60;99.90;;;;;;5045086;28;20040;-64
2021/01/05 01:54:47;;;;;;;150.07;18.27;;;-0.60;99.90;;;;;;5047035;28;20128;-63
2021/01/05 01:57:31;;;;;;;390.52;26.33;;;-0.50;99.90;;;;;;5039752;28;20512;-64
2021/01/05 02:00:20;;;;;;;405.10;28.45;;;-0.60;99.90;;;;;;5026265;28;20046;-63
2021/01/05 02:03:16;;;;;;;309.20;27.60;;;-0.70;99.90;;;;;;5024891;28;20832;-63
2021/01/05 02:06:21;;;;;;;198.45;19.30;;;-0.70;99.90;;;;;;5025968;28;20079;-63
2021/01/05 02:08:52;;;;;;;338.45;23.92;;;-0.70;99.90;;;;;;5033964;28;20033;-64
2021/01/05 02:11:45;;;;;;;229.05;22.35;;;-0.80;99.90;;;;;;5043611;28;20041;-63
2021/01/05 02:14:52;;;;;;;359.63;27.00;;;-0.70;99.90;;;;;;5044889;28;20175;-63
2021/01/05 02:18:03;;;;;;;132.48;17.17;;;-0.70;99.90;;;;;;5041976;28;20044;-64
2021/01/05 02:20:43;;;;;;;203.35;20.42;;;-0.70;99.90;;;;;;5028328;28;20079;-64
2021/01/05 02:23:45;;;;;;;82.80;14.32;;;-0.70;99.90;;;;;;5045504;28;20099;-61
2021/01/05 02:26:26;;;;;;;167.57;17.10;;;-0.70;99.90;;;;;;5041073;28;20174;-64
2021/01/05 02:28:59;;;;;;;182.52;21.08;;;-0.60;99.90;;;;;;5025335;28;20037;-63
2021/01/05 02:31:33;;;;;;;295.48;22.58;;;-0.60;99.90;;;;;;5024740;28;20079;-64
2021/01/05 02:34:05;;;;;;;203.45;18.83;;;-0.70;99.90;;;;;;5025837;28;20037;-63
2021/01/05 02:36:52;;;;;;;369.13;28.05;;;-0.60;99.90;;;;;;5024759;28;20037;-63
2021/01/05 02:39:32;;;;;;;173.05;18.58;;;-0.60;99.90;;;;;;5034003;28;20897;-63
2021/01/05 02:42:09;;;;;;;283.73;23.10;;;-0.70;99.90;;;;;;5039973;28;20040;-63
2021/01/05 02:44:38;;;;;;;170.88;17.00;;;-0.70;99.90;;;;;;5044573;28;20095;-62
2021/01/05 02:47:37;;;;;;;123.05;15.10;;;-0.70;99.90;;;;;;5044112;28;20501;-63
2021/01/05 02:50:31;;;;;;;365.25;24.45;;;-0.60;99.90;;;;;;5045108;28;20036;-63
2021/01/05 02:53:06;;;;;;;414.30;26.95;;;-0.60;99.90;;;;;;5044008;28;20144;-64
2021/01/05 02:55:58;;;;;;;611.65;42.72;;;-0.70;99.90;;;;;;5036316;28;20777;-64
2021/01/05 02:58:45;;;;;;;232.57;22.10;;;-0.80;99.90;;;;;;5024108;28;20060;-63
2021/01/05 03:01:28;;;;;;;250.88;18.67;;;-0.80;99.90;;;;;;5037252;28;20037;-63
2021/01/05 03:03:54;;;;;;;520.92;32.80;;;-0.60;99.90;;;;;;5044691;28;20110;-63
2021/01/05 03:06:26;;;;;;;250.93;20.80;;;-0.80;99.90;;;;;;5044960;28;20041;-62
2021/01/05 03:09:11;;;;;;;136.50;14.85;;;-0.80;99.90;;;;;;5044279;28;20450;-63
2021/01/05 03:12:03;;;;;;;119.07;14.25;;;-0.80;99.90;;;;;;5038343;28;20048;-63
2021/01/05 03:14:37;;;;;;;116.07;15.38;;;-0.60;99.90;;;;;;5045635;28;20049;-62
2021/01/05 03:17:11;;;;;;;374.33;25.17;;;-0.60;99.90;;;;;;5044261;28;20048;-62
2021/01/05 03:19:57;;;;;;;245.10;21.95;;;-0.80;99.90;;;;;;5045450;28;20033;-64
2021/01/05 03:22:28;;;;;;;306.95;22.08;;;-0.60;99.90;;;;;;5045432;28;20040;-63
2021/01/05 03:24:55;;;;;;;152.00;15.23;;;-0.70;99.90;;;;;;5040676;28;20485;-63
2021/01/05 03:27:22;;;;;;;94.07;15.38;;;-0.70;99.90;;;;;;5025246;28;20096;-63
2021/01/05 03:29:51;;;;;;;150.18;17.20;;;-0.60;99.90;;;;;;5024310;28;20072;-63
2021/01/05 03:32:16;;;;;;;189.50;17.58;;;-0.50;99.90;;;;;;5024688;28;20042;-63
2021/01/05 03:34:42;;;;;;;482.95;28.02;;;-0.60;99.90;;;;;;5025323;28;20512;-63
2021/01/05 03:37:07;;;;;;;330.50;23.20;;;-0.60;99.90;;;;;;5024523;28;20036;-63
2021/01/05 03:39:33;;;;;;;429.65;28.00;;;-0.60;99.90;;;;;;5036009;28;20489;-63
2021/01/05 03:41:58;;;;;;;190.18;17.05;;;-0.60;99.90;;;;;;5043828;28;20047;-63
2021/01/05 03:44:24;;;;;;;252.60;21.88;;;-0.70;99.90;;;;;;5044879;28;20049;-63
2021/01/05 03:46:49;;;;;;;206.65;18.38;;;-0.60;99.90;;;;;;5043948;28;20037;-63
2021/01/05 03:49:15;;;;;;;190.05;15.88;;;-0.70;99.90;;;;;;5044860;28;20056;-63
2021/01/05 03:51:40;;;;;;;249.23;21.08;;;-0.60;99.90;;;;;;5048686;28;20045;-63
2021/01/05 03:54:06;;;;;;;154.63;17.40;;;-0.60;99.90;;;;;;5048571;28;20044;-63
2021/01/05 03:56:31;;;;;;;159.55;18.42;;;-0.60;99.90;;;;;;5030308;28;20118;-63
2021/01/05 03:58:57;;;;;;;56.67;12.63;;;-0.60;99.90;;;;;;5028291;28;20038;-64
2021/01/05 04:01:22;;;;;;;159.60;16.08;;;-0.50;99.90;;;;;;5038084;28;20048;-63
2021/01/05 04:03:48;;;;;;;241.38;19.23;;;-0.50;99.90;;;;;;5048088;28;20127;-63
2021/01/05 04:06:13;;;;;;;149.57;17.67;;;-0.50;99.90;;;;;;5031493;28;20631;-63
2021/01/05 04:08:39;;;;;;;212.25;19.83;;;-0.50;99.90;;;;;;5031863;28;20036;-63
2021/01/05 04:11:05;;;;;;;164.63;18.02;;;-0.50;99.90;;;;;;5047597;28;20497;-64
2021/01/05 04:13:31;;;;;;;64.88;12.75;;;-0.50;99.90;;;;;;5047398;28;20118;-64
2021/01/05 04:15:56;;;;;;;107.40;14.77;;;-0.50;99.90;;;;;;5047024;28;20041;-63
2021/01/05 04:18:22;;;;;;;150.82;17.35;;;-0.40;99.90;;;;;;5046961;28;20076;-63
2021/01/05 04:20:47;;;;;;;112.20;14.45;;;-0.50;99.90;;;;;;5034226;28;20132;-64
2021/01/05 04:23:13;;;;;;;131.20;15.85;;;-0.60;99.90;;;;;;5027657;28;20489;-64
2021/01/05 04:25:38;;;;;;;225.75;20.58;;;-0.50;99.90;;;;;;5028189;28;20617;-62
2021/01/05 04:28:04;;;;;;;38.65;11.75;;;-0.50;99.90;;;;;;5038679;28;20044;-64
2021/01/05 04:30:37;;;;;;;153.20;16.60;;;-0.50;99.90;;;;;;5046307;28;20039;-64
2021/01/05 04:33:10;;;;;;;680.00;40.13;;;-0.40;99.90;;;;;;5048456;28;20481;-63
2021/01/05 04:35:37;;;;;;;164.50;15.82;;;-0.50;99.90;;;;;;5035673;28;20072;-63
2021/01/05 04:38:03;;;;;;;272.80;23.30;;;-0.50;99.90;;;;;;5037596;28;20033;-64
2021/01/05 04:40:43;;;;;;;578.80;35.28;;;-0.60;99.90;;;;;;5047017;28;20037;-63
2021/01/05 04:43:34;;;;;;;77.78;13.07;;;-0.60;99.90;;;;;;5046856;28;20049;-61
2021/01/05 04:46:23;;;;;;;529.22;30.05;;;-0.60;99.90;;;;;;5046828;28;20033;-63
2021/01/05 04:49:01;;;;;;;165.73;15.13;;;-0.60;99.90;;;;;;4999747;28;20041;-63
2021/01/05 04:51:27;;;;;;;382.02;21.98;;;-0.60;99.90;;;;;;5027467;28;20044;-63
2021/01/05 04:54:02;;;;;;;171.88;16.52;;;-0.60;99.90;;;;;;5027350;28;20489;-63
2021/01/05 04:57:05;;;;;;;331.45;21.88;;;-0.50;99.90;;;;;;5027022;28;20041;-63
2021/01/05 04:59:49;;;;;;;423.92;23.25;;;-0.50;99.90;;;;;;5030453;28;20041;-64
2021/01/05 05:02:29;;;;;;;323.42;21.88;;;-0.50;99.90;;;;;;5045994;28;20036;-61
2021/01/05 05:05:00;;;;;;;98.30;12.95;;;-0.50;99.90;;;;;;5047438;28;20049;-63
2021/01/05 05:07:31;;;;;;;71.68;13.38;;;-0.50;99.90;;;;;;5047228;28;20036;-62
2021/01/05 05:10:11;;;;;;;85.45;12.25;;;-0.50;99.90;;;;;;5047124;28;20099;-63
2021/01/05 05:12:46;;;;;;;77.85;13.73;;;-0.50;99.90;;;;;;5046668;28;20045;-63
2021/01/05 05:15:35;;;;;;;62.72;12.77;;;-0.40;99.90;;;;;;5043302;28;20068;-62
2021/01/05 05:18:26;;;;;;;353.45;27.83;;;-0.40;99.90;;;;;;5046613;28;20043;-63
2021/01/05 05:21:23;;;;;;;62.28;12.80;;;-0.40;99.90;;;;;;5047389;28;20041;-63
2021/01/05 05:24:01;;;;;;;128.95;14.70;;;-0.40;99.90;;;;;;5046801;28;20049;-63
2021/01/05 05:26:58;;;;;;;54.40;10.45;;;-0.30;99.90;;;;;;5046376;28;20073;-64
2021/01/05 05:29:34;;;;;;;;;;;-0.30;99.90;;;;;;5045357;28;20033;-64
2021/01/05 05:32:03;;;;;;;317.73;18.33;;;-0.30;99.90;;;;;;5046621;28;19956;-63
2021/01/05 05:34:32;;;;;;;273.60;19.42;;;-0.20;99.90;;;;;;5045913;28;20057;-64
2021/01/05 05:37:15;;;;;;;196.38;19.00;;;-0.30;99.90;;;;;;5030167;28;20044;-63
2021/01/05 05:40:08;;;;;;;168.77;15.30;;;-0.30;99.90;;;;;;5044538;28;20064;-63
2021/01/05 05:43:05;;;;;;;396.63;27.17;;;-0.30;99.90;;;;;;5038173;28;20044;-63
2021/01/05 05:45:36;;;;;;;141.32;18.15;;;-0.20;99.90;;;;;;5043618;28;20044;-63
2021/01/05 05:48:27;;;;;;;285.08;21.45;;;-0.10;99.90;;;;;;5030425;28;20128;-63
2021/01/05 05:51:19;;;;;;;64.05;14.23;;;-0.10;99.90;;;;;;5039091;28;20037;-63
2021/01/05 05:54:05;;;;;;;165.73;15.43;;;0.00;99.90;;;;;;5036096;28;20049;-67
2021/01/05 05:56:51;;;;;;;394.17;24.15;;;-0.10;99.90;;;;;;5046698;28;20498;-62
2021/01/05 05:59:19;;;;;;;462.42;26.30;;;-0.20;99.90;;;;;;5043104;28;20051;-64
2021/01/05 06:01:44;;;;;;;363.90;23.83;;;-0.20;99.90;;;;;;5039908;28;20037;-63
2021/01/05 06:04:12;;;;;;;463.23;31.60;;;-0.30;99.90;;;;;;5025347;28;20091;-62
2021/01/05 06:06:39;;;;;;;367.42;23.92;;;-0.40;99.90;;;;;;5025411;28;20044;-63
2021/01/05 06:09:05;;;;;;;439.75;27.20;;;-0.40;99.90;;;;;;5032185;28;20471;-63
2021/01/05 06:11:34;;;;;;;281.00;52.00;;;-0.50;99.90;;;;;;5043829;28;20128;-63
2021/01/05 06:14:03;;;;;;;412.83;29.42;;;-0.30;99.90;;;;;;5043868;28;20179;-63
2021/01/05 06:16:33;;;;;;;395.35;28.98;;;-0.30;99.90;;;;;;5044376;28;20045;-62
2021/01/05 06:18:59;;;;;;;347.67;26.25;;;-0.30;99.90;;;;;;5036311;28;20041;-61
2021/01/05 06:21:25;;;;;;;233.48;16.98;;;-0.30;99.90;;;;;;5024788;28;20072;-62
2021/01/05 06:23:51;;;;;;;323.70;21.55;;;-0.40;99.90;;;;;;5025245;28;20080;-63
2021/01/05 06:26:17;;;;;;;310.25;22.13;;;-0.30;99.90;;;;;;5026857;28;20136;-64
2021/01/05 06:28:43;;;;;;;195.88;19.05;;;-0.30;99.90;;;;;;5043813;28;20099;-63
2021/01/05 06:31:09;;;;;;;313.50;23.23;;;-0.40;99.90;;;;;;5043944;28;20040;-62
2021/01/05 06:33:34;;;;;;;299.45;24.38;;;-0.40;99.90;;;;;;5044713;28;20139;-63
2021/01/05 06:36:00;;;;;;;314.83;22.52;;;-0.40;99.90;;;;;;5042949;28;20124;-61
2021/01/05 06:38:25;;;;;;;155.77;16.70;;;-0.40;99.90;;;;;;5040431;28;20041;-61
2021/01/05 06:40:51;;;;;;;67.22;13.00;;;-0.30;99.90;;;;;;5044238;28;20127;-63
2021/01/05 06:43:17;;;;;;;64.53;14.55;;;-0.30;99.90;;;;;;5044381;28;20067;-58
2021/01/05 06:45:42;;;;;;;227.57;18.48;;;-0.20;99.90;;;;;;5043735;28;20029;-62
2021/01/05 06:48:08;;;;;;;102.68;12.55;;;-0.20;99.90;;;;;;5031658;28;20037;-63
2021/01/05 06:50:34;;;;;;;79.40;13.05;;;-0.10;99.90;;;;;;5035105;28;20041;-64
2021/01/05 06:52:59;;;;;;;119.10;13.77;;;-0.10;99.90;;;;;;5043929;28;20047;-64
2021/01/05 06:55:25;;;;;;;50.10;11.70;;;-0.10;99.90;;;;;;5038538;28;20034;-63
2021/01/05 06:57:51;;;;;;;78.50;13.30;;;-0.10;99.90;;;;;;5042726;28;20040;-62
2021/01/05 07:00:20;;;;;;;121.03;12.75;;;-0.10;99.90;;;;;;5040631;28;20090;-63
2021/01/05 07:02:46;;;;;;;67.90;12.00;;;-0.10;99.90;;;;;;5021967;28;20087;-59
2021/01/05 07:05:12;;;;;;;49.67;11.55;;;0.00;99.90;;;;;;5023472;28;20041;-61
2021/01/05 07:07:38;;;;;;;252.40;17.20;;;0.00;99.90;;;;;;5024441;28;20053;-59
2021/01/05 07:10:05;;;;;;;38.40;10.07;;;0.00;99.90;;;;;;5044120;28;20029;-57
2021/01/05 07:12:31;;;;;;;75.25;12.60;;;-0.10;99.90;;;;;;5040848;28;20048;-62
2021/01/05 07:14:57;;;;;;;131.50;14.63;;;-0.10;99.90;;;;;;5043102;28;20040;-62
2021/01/05 07:17:23;;;;;;;361.63;23.33;;;-0.10;99.90;;;;;;5044428;28;20505;-67
2021/01/05 07:19:48;;;;;;;92.90;13.10;;;-0.10;99.90;;;;;;5044491;28;20075;-65
2021/01/05 07:22:14;;;;;;;193.27;15.80;;;0.00;99.90;;;;;;5044604;28;20076;-66
2021/01/05 07:24:39;;;;;;;69.78;10.65;;;0.00;99.90;;;;;;5036325;28;20045;-65
2021/01/05 07:27:06;;;;;;;160.07;13.98;;;0.00;99.90;;;;;;5028193;28;20084;-65
2021/01/05 07:29:31;;;;;;;110.28;12.35;;;0.00;99.90;;;;;;5029240;28;20044;-65
2021/01/05 07:31:57;;;;;;;73.65;12.23;;;0.00;99.90;;;;;;5028418;28;20041;-65
2021/01/05 07:34:22;;;;;;;120.65;13.75;;;0.00;99.90;;;;;;5029126;28;20132;-64
2021/01/05 07:36:54;;;;;;;88.85;12.05;;;0.00;99.90;;;;;;5028303;28;20045;-67
2021/01/05 07:39:26;;;;;;;186.18;18.33;;;0.00;99.90;;;;;;5042221;28;20569;-64
2021/01/05 07:42:08;;;;;;;204.38;18.73;;;0.00;99.90;;;;;;5048014;28;20102;-65
2021/01/05 07:44:34;;;;;;;360.88;23.10;;;0.00;99.90;;;;;;5048303;28;20051;-65
2021/01/05 07:47:00;;;;;;;117.43;14.52;;;-0.20;99.90;;;;;;5047015;28;20033;-62
2021/01/05 07:49:25;;;;;;;76.75;13.35;;;-0.10;99.90;;;;;;5045619;28;20071;-66
2021/01/05 07:51:51;;;;;;;278.73;19.77;;;0.00;99.90;;;;;;5048602;28;20064;-63
2021/01/05 07:54:16;;;;;;;183.90;15.55;;;0.00;99.90;;;;;;5048853;28;20565;-62
2021/01/05 07:56:45;;;;;;;153.35;12.95;;;0.00;99.90;;;;;;5048986;28;20437;-63
2021/01/05 07:59:11;;;;;;;134.00;13.23;;;0.00;99.90;;;;;;5047176;28;20036;-63
2021/01/05 08:01:37;;;;;;;150.55;13.10;;;0.00;99.90;;;;;;5047630;28;20033;-62
2021/01/05 08:04:03;;;;;;;113.55;13.85;;;0.10;99.90;;;;;;5048363;28;20599;-64
2021/01/05 08:06:28;;;;;;;279.13;20.33;;;0.10;99.90;;;;;;5048133;28;20053;-62
2021/01/05 08:08:54;;;;;;;170.63;15.05;;;0.00;99.90;;;;;;5039291;28;20132;-61
2021/01/05 08:11:20;;;;;;;120.47;13.18;;;0.00;99.90;;;;;;5047644;28;20091;-63
2021/01/05 08:13:45;;;;;;;107.70;14.27;;;0.00;99.90;;;;;;5046561;28;20093;-61
2021/01/05 08:16:14;;;;;;;235.98;16.65;;;0.00;99.90;;;;;;5047642;28;20086;-61
2021/01/05 08:18:40;;;;;;;194.90;14.43;;;0.10;99.90;;;;;;5047817;28;20041;-61
2021/01/05 08:21:07;;;;;;;141.45;13.20;;;0.10;99.90;;;;;;5048552;28;20033;-60
2021/01/05 08:23:33;;;;;;;164.50;13.35;;;0.10;99.90;;;;;;5062984;28;20048;-60
2021/01/05 08:25:58;;;;;;;243.63;18.13;;;0.10;99.90;;;;;;5047708;28;20045;-62
2021/01/05 08:28:24;;;;;;;206.10;15.85;;;0.00;99.90;;;;;;5045577;28;20139;-60
2021/01/05 08:30:49;;;;;;;153.77;15.05;;;0.00;99.90;;;;;;5045031;28;20041;-61
2021/01/05 08:33:16;;;;;;;204.30;14.23;;;0.00;99.90;;;;;;5047719;28;20037;-62
2021/01/05 08:35:46;;;;;;;194.30;14.57;;;0.00;99.90;;;;;;5046803;28;20871;-62
2021/01/05 08:38:12;;;;;;;372.95;24.27;;;0.00;99.90;;;;;;5038359;28;20095;-61
2021/01/05 08:40:38;;;;;;;125.88;14.68;;;-0.10;99.90;;;;;;5044984;28;20037;-63
2021/01/05 08:43:06;;;;;;;206.27;16.02;;;-0.10;99.90;;;;;;5046394;28;20524;-62
2021/01/05 08:45:32;;;;;;;136.40;12.65;;;0.00;99.90;;;;;;5042876;28;20044;-61
2021/01/05 08:48:00;;;;;;;225.45;16.27;;;0.00;99.90;;;;;;5031785;28;20044;-61
2021/01/05 08:50:31;;;;;;;307.42;20.25;;;0.00;99.90;;;;;;5036164;28;20033;-62
2021/01/05 08:53:08;;;;;;;110.60;14.07;;;0.00;99.90;;;;;;5046936;28;20102;-61
2021/01/05 08:55:39;;;;;;;59.25;10.65;;;0.10;99.90;;;;;;5040931;28;20144;-62
2021/01/05 08:58:05;;;;;;;60.72;11.95;;;0.00;99.90;;;;;;5044444;28;20493;-61
2021/01/05 09:00:31;;;;;;;108.45;12.70;;;0.10;99.90;;;;;;5028039;28;20048;-61
2021/01/05 09:02:56;;;;;;;88.82;12.45;;;0.10;99.90;;;;;;5035618;28;20041;-61
2021/01/05 09:05:23;;;;;;;54.38;10.90;;;0.20;99.90;;;;;;5026583;28;20144;-61
2021/01/05 09:07:49;;;;;;;153.80;14.20;;;0.10;99.90;;;;;;5026735;28;20037;-60
2021/01/05 09:10:20;;;;;;;96.75;12.68;;;0.10;99.90;;;;;;5042611;28;20512;-60
2021/01/05 09:12:46;;;;;;;76.00;11.57;;;0.10;99.90;;;;;;5046261;28;20037;-61
2021/01/05 09:15:15;;;;;;;117.80;12.70;;;0.20;99.90;;;;;;5045946;28;20068;-61
2021/01/05 09:17:45;;;;;;;35.75;11.63;;;0.20;99.90;;;;;;5046220;28;20123;-59
2021/01/05 09:20:29;;;;;;;40.83;11.18;;;0.20;99.90;;;;;;5045524;28;20040;-61
2021/01/05 09:22:55;;;;;;;25.52;10.77;;;0.20;99.90;;;;;;5046705;28;20048;-60
2021/01/05 09:25:21;;;;;;;35.58;11.00;;;0.20;99.90;;;;;;5037801;28;20465;-62
2021/01/05 09:27:49;;;;;;;30.50;10.75;;;0.20;99.90;;;;;;5025876;28;20041;-58
2021/01/05 09:30:16;;;;;;;30.13;11.65;;;0.20;99.90;;;;;;5056618;28;20040;-62
2021/01/05 09:32:42;;;;;;;24.17;10.73;;;0.30;99.90;;;;;;5054959;28;20052;-61
2021/01/05 09:35:08;;;;;;;25.05;11.07;;;0.20;99.90;;;;;;5063675;28;20102;-61
2021/01/05 09:37:34;;;;;;;27.60;12.10;;;0.30;99.90;;;;;;5058690;28;20041;-61
2021/01/05 09:40:00;;;;;;;27.90;11.68;;;0.20;99.90;;;;;;5048559;22;20073;-61
2021/01/05 09:42:29;;;;;;;39.67;12.82;;;0.20;99.90;;;;;;5063130;28;20822;-70
2021/01/05 09:44:54;;;;;;;24.92;12.93;;;0.10;99.90;;;;;;5070706;28;20620;-61
2021/01/05 09:47:20;;;;;;;27.65;10.82;;;0.10;99.90;;;;;;5064789;28;20032;-61
2021/01/05 09:49:48;;;;;;;25.08;11.60;;;0.20;99.90;;;;;;5085979;28;20036;-61
2021/01/05 09:52:13;;;;;;;25.27;11.00;;;0.20;99.90;;;;;;5086595;28;20752;-66
2021/01/05 09:54:39;;;;;;;22.38;10.02;;;0.30;99.90;;;;;;5087542;28;20044;-67
2021/01/05 09:57:05;;;;;;;21.45;10.25;;;0.30;99.90;;;;;;5087255;28;20028;-65
2021/01/05 09:59:31;;;;;;;19.25;9.02;;;0.30;99.90;;;;;;5085902;28;20042;-64
2021/01/05 10:02:02;;;;;;;26.20;10.45;;;0.30;99.90;;;;;;5071254;28;20041;-65
2021/01/05 10:04:27;;;;;;;23.50;10.73;;;0.30;99.90;;;;;;5066506;28;20063;-66
2021/01/05 10:06:53;;;;;;;27.63;10.93;;;0.40;99.90;;;;;;5065296;28;20110;-69
2021/01/05 10:09:19;;;;;;;21.55;9.57;;;0.40;99.90;;;;;;5043468;23;20044;-66
2021/01/05 10:11:45;;;;;;;17.77;8.90;;;0.30;99.90;;;;;;5045467;28;20049;-67
2021/01/05 10:14:12;;;;;;;29.45;11.63;;;0.40;99.90;;;;;;5044847;28;20041;-66
2021/01/05 10:16:38;;;;;;;39.15;12.43;;;0.40;99.90;;;;;;5026275;28;20398;-64
2021/01/05 10:19:04;;;;;;;39.60;11.60;;;0.30;99.90;;;;;;5026087;28;20057;-66
2021/01/05 10:21:41;;;;;;;39.58;12.82;;;0.10;99.90;;;;;;5026881;28;20056;-63
2021/01/05 10:24:08;;;;;;;23.15;11.07;;;0.10;99.90;;;;;;5025691;28;20057;-62
2021/01/05 10:26:34;;;;;;;31.25;12.63;;;0.20;99.90;;;;;;5026506;28;20061;-62
2021/01/05 10:29:00;;;;;;;30.20;12.38;;;0.20;99.90;;;;;;5025872;28;20037;-62
2021/01/05 10:31:26;;;;;;;26.30;11.75;;;0.20;99.90;;;;;;5024425;28;20033;-66
2021/01/05 10:33:52;;;;;;;24.50;11.75;;;0.20;99.90;;;;;;5025968;28;20041;-68
2021/01/05 10:36:21;;;;;;;23.10;10.40;;;0.30;99.90;;;;;;5027226;28;20069;-69
2021/01/05 10:38:48;;;;;;;28.40;11.65;;;0.30;99.90;;;;;;5026583;28;20493;-63
2021/01/05 10:41:15;;;;;;;32.83;11.55;;;0.40;99.90;;;;;;5016541;28;20034;-62
2021/01/05 10:43:42;;;;;;;70.25;14.40;;;0.40;99.90;;;;;;5029394;28;20037;-61
2021/01/05 10:46:08;;;;;;;58.35;13.07;;;0.30;99.90;;;;;;5036333;28;20037;-63
2021/01/05 10:48:34;;;;;;;39.45;12.27;;;0.40;99.90;;;;;;5001902;28;20042;-63
2021/01/05 10:50:59;;;;;;;38.97;12.45;;;0.40;99.90;;;;;;5000870;28;20124;-62
2021/01/05 10:53:27;;;;;;;37.78;11.35;;;0.50;99.90;;;;;;5004905;28;20446;-62
2021/01/05 10:55:52;;;;;;;87.85;14.35;;;0.50;99.90;;;;;;5003235;28;20041;-63
2021/01/05 10:58:18;;;;;;;24.15;11.00;;;0.40;99.90;;;;;;5004724;28;20819;-63
2021/01/05 11:00:44;;;;;;;23.23;10.43;;;0.50;99.90;;;;;;5004874;28;20117;-63
2021/01/05 11:03:09;;;;;;;21.58;10.52;;;0.50;99.90;;;;;;5004960;28;20042;-64
2021/01/05 11:05:35;;;;;;;20.90;10.45;;;0.50;99.90;;;;;;5004943;28;20042;-66
2021/01/05 11:08:00;;;;;;;19.90;9.75;;;0.50;99.90;;;;;;5005605;28;20034;-66
2021/01/05 11:10:26;;;;;;;25.95;10.35;;;0.60;99.90;;;;;;5005044;28;20038;-67
2021/01/05 11:12:56;;;;;;;15.40;7.57;;;0.40;99.90;;;;;;5003343;28;20038;-63
2021/01/05 11:15:24;;;;;;;11.32;6.22;;;0.50;99.90;;;;;;5050439;22;20044;-66
2021/01/05 11:17:52;;;;;;;14.05;7.35;;;0.50;99.90;;;;;;5062159;22;20092;-68
2021/01/05 11:20:18;;;;;;;12.18;6.30;;;0.60;99.90;;;;;;5026487;22;20041;-68
2021/01/05 11:22:44;;;;;;;10.45;5.95;;;0.60;99.90;;;;;;5039289;22;20046;-63
2021/01/05 11:25:15;;;;;;;13.38;6.28;;;0.60;99.90;;;;;;5040075;22;20312;-67
2021/01/05 11:27:41;;;;;;;11.23;5.85;;;0.70;99.90;;;;;;5057853;23;20077;-82
2021/01/05 11:30:08;;;;;;;12.85;5.70;;;0.70;99.90;;;;;;5042922;28;20122;-79
2021/01/05 11:32:34;;;;;;;14.32;6.50;;;0.70;99.90;;;;;;5047000;28;20116;-80
2021/01/05 11:34:59;;;;;;;12.25;6.78;;;0.70;99.90;;;;;;5030816;28;20053;-82
2021/01/05 11:37:34;;;;;;;13.68;6.47;;;0.60;99.90;;;;;;5031768;28;20041;-81
2021/01/05 11:39:59;;;;;;;13.02;6.60;;;0.60;99.90;;;;;;5029971;28;20047;-81
2021/01/05 11:42:25;;;;;;;10.45;5.60;;;0.50;99.90;;;;;;5030892;28;20041;-86
2021/01/05 11:44:51;;;;;;;11.50;6.07;;;0.60;99.90;;;;;;5031150;28;20124;-80
2021/01/05 11:47:19;;;;;;;11.52;6.38;;;0.70;99.90;;;;;;5047273;28;20044;-79
2021/01/05 11:49:45;;;;;;;49.17;25.77;;;0.70;99.90;;;;;;5030311;28;20037;-81
2021/01/05 11:52:11;;;;;;;19.00;9.50;;;0.80;99.90;;;;;;5031415;28;20055;-82
2021/01/05 11:54:37;;;;;;;12.90;6.38;;;0.70;99.90;;;;;;5048782;28;20041;-87
2021/01/05 11:57:03;;;;;;;9.98;5.43;;;0.70;99.90;;;;;;5031077;28;20052;-84
2021/01/05 11:59:28;;;;;;;11.20;5.70;;;0.80;99.90;;;;;;5048318;28;20047;-83
2021/01/05 12:01:55;;;;;;;9.80;5.47;;;0.80;99.90;;;;;;5035155;28;20513;-81
2021/01/05 12:04:21;;;;;;;10.02;5.50;;;0.70;99.90;;;;;;5037665;28;20052;-82
2021/01/05 12:06:52;;;;;;;12.00;5.75;;;0.70;99.90;;;;;;5043294;28;20079;-84
2021/01/05 12:09:20;;;;;;;11.68;5.97;;;0.60;99.90;;;;;;5039489;28;20035;-79
2021/01/05 12:11:47;;;;;;;8.70;4.57;;;0.60;99.90;;;;;;5041876;28;20041;-81
2021/01/05 12:14:22;;;;;;;10.88;5.60;;;0.60;99.90;;;;;;5045183;28;20044;-79
2021/01/05 12:16:48;;;;;;;13.23;7.60;;;0.60;99.90;;;;;;5045683;28;20049;-81
2021/01/05 12:19:23;;;;;;;11.88;5.68;;;0.60;99.90;;;;;;5040943;28;20037;-81
2021/01/05 12:21:50;;;;;;;12.82;6.88;;;0.50;99.90;;;;;;5046042;28;20033;-80
2021/01/05 12:24:22;;;;;;;14.18;6.72;;;0.40;99.90;;;;;;5035601;28;20584;-80
2021/01/05 12:26:48;;;;;;;15.93;7.50;;;0.40;99.90;;;;;;5041712;28;20115;-83
2021/01/05 12:29:21;;;;;;;17.52;9.15;;;0.30;99.90;;;;;;5059138;28;20474;-84
2021/01/05 12:31:50;;;;;;;15.95;9.00;;;0.40;99.90;;;;;;5041515;28;20036;-83
2021/01/05 12:34:19;;;;;;;24.15;10.27;;;0.50;99.90;;;;;;5072758;28;20052;-81
2021/01/05 12:36:45;;;;;;;18.88;10.23;;;0.50;99.90;;;;;;5031625;28;20045;-80
2021/01/05 12:39:20;;;;;;;21.73;9.95;;;0.40;99.90;;;;;;5057528;28;20044;-80
2021/01/05 12:41:46;;;;;;;25.63;11.38;;;0.40;99.90;;;;;;5031910;28;20041;-83